Time;durP1;ratioP1;P1;durP2;ratioP2;P2;SDS_P1;SDS_P2;PMS_P1;PMS_P2;Temp;Humidity;BMP_temperature;BMP_pressure;BME280_temperature;BME280_humidity;BME280_pressure;Samples;Min_cycle;Max_cycle;Signal;HPM_P1;HPM_P2
2022/11/01 00:02:09;;;;;;;38.53;20.77;;;;;;;13.31;100.00;101049.18;1689060;82;26229;-80
2022/11/01 00:04:35;;;;;;;37.40;21.57;;;;;;;13.30;100.00;101044.84;1701645;82;25851;-79
2022/11/01 00:07:01;;;;;;;39.40;21.48;;;;;;;13.30;100.00;101046.19;1690600;82;27440;-78
2022/11/01 00:09:28;;;;;;;42.65;22.35;;;;;;;13.30;100.00;101041.61;1698258;82;25800;-79
2022/11/01 00:11:54;;;;;;;36.50;21.45;;;;;;;13.30;100.00;101048.88;1690829;82;25823;-79
2022/11/01 00:14:21;;;;;;;38.70;21.02;;;;;;;13.28;100.00;101040.98;1691929;83;26269;-80
2022/11/01 00:16:47;;;;;;;45.98;22.82;;;;;;;13.28;100.00;101039.63;1688674;84;25813;-78
2022/11/01 00:19:14;;;;;;;41.33;22.48;;;;;;;13.27;100.00;101041.18;1695661;84;27454;-79
2022/11/01 00:21:40;;;;;;;44.33;23.10;;;;;;;13.25;100.00;101045.42;1698990;82;25760;-80
2022/11/01 00:24:07;;;;;;;43.65;23.20;;;;;;;13.24;100.00;101042.93;1691934;82;25938;-79
2022/11/01 00:26:33;;;;;;;46.20;23.07;;;;;;;13.26;100.00;101039.00;1690088;82;25829;-79
2022/11/01 00:29:00;;;;;;;47.23;24.02;;;;;;;13.24;100.00;101036.20;1694527;82;25731;-80
2022/11/01 00:31:26;;;;;;;46.73;23.18;;;;;;;13.24;100.00;101035.66;1688878;84;27470;-80
2022/11/01 00:33:52;;;;;;;46.37;22.90;;;;;;;13.24;100.00;101032.98;1700378;82;26480;-79
2022/11/01 00:36:19;;;;;;;44.33;23.83;;;;;;;13.22;100.00;101032.34;1691172;82;26218;-80
2022/11/01 00:38:51;;;;;;;45.70;24.20;;;;;;;13.22;100.00;101026.12;1692238;83;25757;-78
2022/11/01 00:41:20;;;;;;;50.73;25.32;;;;;;;13.22;100.00;101024.77;1688965;84;25807;-79
2022/11/01 00:43:47;;;;;;;56.75;27.02;;;;;;;13.20;100.00;101020.94;1691979;82;26916;-80
2022/11/01 00:46:14;;;;;;;50.60;23.57;;;;;;;13.18;100.00;101020.30;1681790;83;25865;-79
2022/11/01 00:48:41;;;;;;;48.20;23.87;;;;;;;13.16;100.00;101018.32;1670833;82;25647;-79
2022/11/01 00:51:07;;;;;;;53.48;23.62;;;;;;;13.15;100.00;101022.86;1672458;84;25780;-78
2022/11/01 00:53:33;;;;;;;45.58;22.75;;;;;;;13.17;100.00;101023.20;1670148;84;25911;-79
2022/11/01 00:56:01;;;;;;;44.20;23.38;;;;;;;13.16;100.00;101023.70;1661483;85;26991;-79
2022/11/01 00:58:27;;;;;;;45.95;23.00;;;;;;;13.15;100.00;101024.20;1661852;84;25904;-79
2022/11/01 01:00:53;;;;;;;50.30;23.38;;;;;;;13.17;100.00;101024.04;1685229;83;25740;-78
2022/11/01 01:03:20;;;;;;;39.58;21.60;;;;;;;13.18;100.00;101021.66;1696734;84;25832;-79
2022/11/01 01:05:48;;;;;;;38.88;19.73;;;;;;;13.19;100.00;101018.45;1731124;81;25774;-79
2022/11/01 01:08:15;;;;;;;39.75;22.45;;;;;;;13.20;100.00;101016.06;1721465;82;27450;-79
2022/11/01 01:10:41;;;;;;;45.52;22.77;;;;;;;13.20;100.00;101016.06;1710249;83;25870;-79
2022/11/01 01:13:07;;;;;;;46.63;22.85;;;;;;;13.21;100.00;101010.52;1721600;83;25905;-78
2022/11/01 01:15:34;;;;;;;42.23;22.60;;;;;;;13.21;100.00;101011.86;1721873;83;25851;-79
2022/11/01 01:18:00;;;;;;;43.23;22.13;;;;;;;13.19;100.00;101013.08;1716826;81;25824;-79
2022/11/01 01:20:26;;;;;;;38.75;22.55;;;;;;;13.18;100.00;101011.39;1723363;81;26946;-78
2022/11/01 01:22:52;;;;;;;45.80;22.15;;;;;;;13.15;100.00;101005.91;1710359;82;26249;-79
2022/11/01 01:25:19;;;;;;;39.60;22.22;;;;;;;13.15;100.00;101001.34;1713693;81;26542;-80
2022/11/01 01:27:46;;;;;;;38.50;20.62;;;;;;;13.16;100.00;100999.49;1720806;81;25859;-79
2022/11/01 01:30:13;;;;;;;42.17;20.43;;;;;;;13.14;100.00;101001.05;1705197;82;26003;-80
2022/11/01 01:32:40;;;;;;;38.58;20.00;;;;;;;13.13;100.00;101002.05;1709542;82;27456;-77
2022/11/01 01:35:07;;;;;;;35.95;19.37;;;;;;;13.10;100.00;100999.77;1710722;81;25794;-79
2022/11/01 01:37:34;;;;;;;38.48;20.30;;;;;;;13.07;100.00;101001.98;1718359;82;25815;-78
2022/11/01 01:40:00;;;;;;;37.35;19.37;;;;;;;13.05;100.00;100998.16;1714739;81;26064;-78
2022/11/01 01:42:34;;;;;;;33.70;17.98;;;;;;;13.05;100.00;101000.01;1721383;82;26056;-79
2022/11/01 01:45:15;;;;;;;34.25;17.95;;;;;;;13.06;100.00;100997.66;1711534;82;27429;-79
2022/11/01 01:47:46;;;;;;;32.05;18.62;;;;;;;13.06;100.00;101000.34;1713542;81;25807;-79
2022/11/01 01:50:21;;;;;;;34.33;18.27;;;;;;;13.04;100.00;101005.89;1740193;80;25825;-79
2022/11/01 01:53:04;;;;;;;32.15;19.35;;;;;;;13.03;100.00;100998.83;1737410;81;25842;-79
2022/11/01 01:55:55;;;;;;;28.17;16.80;;;;;;;13.03;100.00;100996.14;1744480;80;25831;-80
2022/11/01 01:58:25;;;;;;;27.82;16.90;;;;;;;13.02;100.00;101002.53;1728568;80;28793;-80
2022/11/01 02:00:52;;;;;;;28.95;16.70;;;;;;;13.02;100.00;100994.47;1744951;80;26013;-80
2022/11/01 02:03:22;;;;;;;29.10;17.55;;;;;;;13.03;100.00;100992.11;1745587;80;26484;-81
2022/11/01 02:05:58;;;;;;;32.03;18.23;;;;;;;13.04;100.00;100988.41;1726749;80;25783;-81
2022/11/01 02:08:28;;;;;;;27.58;17.77;;;;;;;13.05;100.00;100985.22;1743147;80;26154;-78
2022/11/01 02:11:01;;;;;;;32.95;18.25;;;;;;;13.04;100.00;100981.69;1703127;82;27480;-80
2022/11/01 02:13:30;;;;;;;31.62;18.55;;;;;;;13.05;100.00;100979.84;1701490;82;26485;-79
2022/11/01 02:16:19;;;;;;;25.27;16.93;;;;;;;13.03;100.00;100975.97;1706221;82;25917;-79
2022/11/01 02:19:10;;;;;;;34.83;16.27;;;;;;;13.00;100.00;100969.63;1708559;82;25816;-80
2022/11/01 02:21:59;;;;;;;31.97;17.00;;;;;;;13.00;100.00;100958.87;1709528;82;25898;-80
2022/11/01 02:25:01;;;;;;;27.67;16.17;;;;;;;12.99;100.00;100958.56;1683837;83;28244;-80
2022/11/01 02:27:33;;;;;;;32.33;16.90;;;;;;;12.96;100.00;100959.45;1684753;83;25806;-81
2022/11/01 02:30:08;;;;;;;25.55;15.25;;;;;;;12.90;100.00;100958.38;1690857;83;25748;-80
2022/11/01 02:33:04;;;;;;;24.05;14.43;;;;;;;12.88;100.00;100956.39;1691469;83;26422;-81
2022/11/01 02:36:02;;;;;;;20.77;13.32;;;;;;;12.87;100.00;100958.75;1685311;83;25788;-79
2022/11/01 02:38:39;;;;;;;19.92;13.28;;;;;;;12.89;100.00;100958.58;1684730;83;28686;-80
2022/11/01 02:41:24;;;;;;;25.72;12.70;;;;;;;12.89;100.00;100950.52;1682603;83;25863;-80
2022/11/01 02:44:05;;;;;;;22.13;13.13;;;;;;;12.89;100.00;100939.75;1703879;82;26181;-79
2022/11/01 02:49:30;;;;;;;21.07;12.13;;;;;;;12.83;100.00;100931.93;1678721;83;26468;-79
2022/11/01 02:51:58;;;;;;;19.10;12.20;;;;;;;12.78;100.00;100933.55;1694972;82;27439;-78
2022/11/01 02:54:33;;;;;;;18.77;13.15;;;;;;;12.74;100.00;100928.24;1711202;81;25280;-79
2022/11/01 02:57:37;;;;;;;21.17;13.53;;;;;;;12.73;100.00;100936.81;1715792;81;25851;-79
2022/11/01 03:00:27;;;;;;;21.35;14.63;;;;;;;12.69;100.00;100932.84;1704816;82;25483;-80
2022/11/01 03:03:11;;;;;;;21.93;14.23;;;;;;;12.67;100.00;100940.27;1712527;81;25840;-80
2022/11/01 03:05:58;;;;;;;20.20;12.90;;;;;;;12.67;100.00;100938.93;1711397;83;27446;-80
2022/11/01 03:08:39;;;;;;;28.15;13.50;;;;;;;12.66;100.00;100937.25;1723069;81;25848;-80
2022/11/01 03:11:22;;;;;;;25.00;13.18;;;;;;;12.64;100.00;100939.84;1721716;81;25332;-80
2022/11/01 03:14:08;;;;;;;35.70;14.90;;;;;;;12.59;100.00;100938.22;1712115;82;26385;-80
2022/11/01 03:16:55;;;;;;;21.42;13.53;;;;;;;12.55;100.00;100940.98;1709980;82;25836;-81
2022/11/01 03:19:34;;;;;;;18.77;13.60;;;;;;;12.55;100.00;100936.44;1715620;81;27475;-79
2022/11/01 03:22:09;;;;;;;18.52;13.05;;;;;;;12.55;100.00;100932.91;1691036;83;25849;-79
2022/11/01 03:24:59;;;;;;;18.85;12.55;;;;;;;12.55;100.00;100936.95;1687970;83;25804;-79
2022/11/01 03:27:38;;;;;;;18.10;12.58;;;;;;;12.55;100.00;100938.29;1700827;83;25789;-79
2022/11/01 03:30:09;;;;;;;20.15;12.13;;;;;;;12.48;100.00;100944.94;1688929;83;26394;-79
2022/11/01 03:32:44;;;;;;;16.32;12.00;;;;;;;12.48;100.00;100944.94;1688903;83;27445;-78
2022/11/01 03:35:18;;;;;;;19.02;12.43;;;;;;;12.51;100.00;100945.07;1688331;83;25870;-78
2022/11/01 03:37:50;;;;;;;23.75;12.65;;;;;;;12.52;100.00;100938.66;1689623;83;25705;-80
2022/11/01 03:40:18;;;;;;;23.18;13.13;;;;;;;12.53;100.00;100931.73;1696713;83;25997;-80
2022/11/01 03:42:48;;;;;;;25.05;12.07;;;;;;;12.56;100.00;100930.53;1692362;83;25316;-80
2022/11/01 03:45:21;;;;;;;28.85;13.10;;;;;;;12.55;100.00;100918.97;1690466;83;27463;-80
2022/11/01 03:47:48;;;;;;;20.97;12.93;;;;;;;12.56;100.00;100910.38;1711174;83;25806;-80
2022/11/01 03:50:19;;;;;;;39.75;19.73;;;;;;;12.58;100.00;100905.64;1706731;82;25745;-80
2022/11/01 03:52:46;;;;;;;;;;;;;;;12.58;100.00;100899.77;1710004;83;25750;-80
2022/11/01 03:55:18;;;;;;;43.13;18.30;;;;;;;12.59;100.00;100905.97;1709651;83;25890;-79
2022/11/01 03:57:54;;;;;;;33.48;13.60;;;;;;;12.56;100.00;100906.34;1716967;83;27456;-81
2022/11/01 04:00:30;;;;;;;29.10;14.68;;;;;;;12.52;100.00;100916.66;1714987;83;26549;-79
2022/11/01 04:02:58;;;;;;;33.67;13.22;;;;;;;12.50;100.00;100920.05;1710965;83;26452;-80
2022/11/01 04:05:27;;;;;;;26.30;11.55;;;;;;;12.50;100.00;100916.02;1708366;83;25944;-79
2022/11/01 04:07:54;;;;;;;29.55;13.80;;;;;;;12.51;100.00;100902.08;1717520;82;25847;-80
2022/11/01 04:10:23;;;;;;;27.02;12.78;;;;;;;12.51;100.00;100894.02;1712964;83;27440;-80
2022/11/01 04:12:51;;;;;;;19.65;11.60;;;;;;;12.52;100.00;100889.78;1720609;82;25908;-79
2022/11/01 04:21:15;;;;;;;18.62;11.05;;;;;;;12.49;100.00;100900.09;1691555;83;26083;-80
2022/11/01 04:23:43;;;;;;;20.50;12.07;;;;;;;12.44;100.00;100911.41;1693742;82;27451;-80
2022/11/01 04:26:14;;;;;;;20.90;11.90;;;;;;;12.47;100.00;100900.27;1691820;82;25879;-81
2022/11/01 04:28:40;;;;;;;35.37;12.33;;;;;;;12.48;100.00;100892.55;1693264;83;25807;-81
2022/11/01 04:31:07;;;;;;;25.60;12.15;;;;;;;12.49;100.00;100887.47;1696752;82;25429;-81
2022/11/01 04:33:33;;;;;;;21.07;12.05;;;;;;;12.51;100.00;100885.42;1695397;83;25919;-80
2022/11/01 04:36:07;;;;;;;21.17;11.73;;;;;;;12.50;100.00;100887.80;1694008;83;26901;-80
2022/11/01 04:38:34;;;;;;;26.70;11.97;;;;;;;12.52;100.00;100892.47;1697405;82;25943;-80
2022/11/01 04:41:00;;;;;;;22.35;12.82;;;;;;;12.53;100.00;100890.09;1689074;82;25512;-80
2022/11/01 04:43:26;;;;;;;22.05;11.68;;;;;;;12.53;100.00;100887.94;1694686;82;26647;-81
2022/11/01 04:45:54;;;;;;;21.57;11.43;;;;;;;12.53;100.00;100890.09;1687523;82;26345;-80
2022/11/01 04:48:21;;;;;;;27.40;11.93;;;;;;;12.53;100.00;100893.31;1690864;83;27441;-80
2022/11/01 04:50:50;;;;;;;18.37;11.80;;;;;;;12.50;100.00;100897.21;1694295;82;26691;-80
2022/11/01 04:53:16;;;;;;;23.90;12.50;;;;;;;12.51;100.00;100889.45;1698140;82;25667;-80
2022/11/01 04:55:42;;;;;;;21.90;12.53;;;;;;;12.52;100.00;100880.38;1698210;83;25809;-80
2022/11/01 04:58:09;;;;;;;28.38;12.78;;;;;;;12.54;100.00;100873.46;1697367;82;26532;-80
2022/11/01 05:00:37;;;;;;;27.13;13.50;;;;;;;12.55;100.00;100869.27;1691235;82;28108;-81
2022/11/01 05:03:06;;;;;;;22.52;12.23;;;;;;;12.56;100.00;100865.53;1712360;81;26570;-81
2022/11/01 05:05:34;;;;;;;24.50;13.58;;;;;;;12.58;100.00;100867.52;1692105;83;25857;-81
2022/11/01 05:08:08;;;;;;;22.48;14.28;;;;;;;12.58;100.00;100871.55;1692963;83;25788;-81
2022/11/01 05:10:41;;;;;;;29.30;13.43;;;;;;;12.56;100.00;100874.94;1694381;83;25936;-80
2022/11/01 05:13:09;;;;;;;31.17;14.85;;;;;;;12.54;100.00;100864.06;1688303;83;27462;-81
2022/11/01 05:15:36;;;;;;;28.73;15.78;;;;;;;12.55;100.00;100869.27;1692623;82;25876;-80
2022/11/01 05:18:04;;;;;;;37.48;17.00;;;;;;;12.56;100.00;100867.37;1692524;83;25800;-80
2022/11/01 05:20:32;;;;;;;25.20;15.30;;;;;;;12.57;100.00;100867.72;1696050;83;26499;-80
2022/11/01 05:23:01;;;;;;;22.55;14.07;;;;;;;12.58;100.00;100870.20;1690471;83;25832;-79
2022/11/01 05:25:29;;;;;;;40.92;13.58;;;;;;;12.59;100.00;100871.04;1689141;82;27469;-80
2022/11/01 05:28:10;;;;;;;23.38;12.28;;;;;;;12.58;100.00;100862.64;1683462;83;25914;-79
2022/11/01 05:30:37;;;;;;;24.15;13.08;;;;;;;12.57;100.00;100860.49;1686108;82;25862;-80
2022/11/01 05:33:05;;;;;;;29.67;13.10;;;;;;;12.58;100.00;100863.98;1682791;82;25951;-80
2022/11/01 05:35:34;;;;;;;42.62;13.40;;;;;;;12.55;100.00;100863.89;1694552;84;26585;-81
2022/11/01 05:38:02;;;;;;;19.30;12.75;;;;;;;12.54;100.00;100863.55;1697788;83;27479;-80
2022/11/01 05:40:30;;;;;;;26.40;14.15;;;;;;;12.53;100.00;100853.01;1695209;83;25892;-80
2022/11/01 05:42:57;;;;;;;25.20;14.47;;;;;;;12.51;100.00;100859.09;1687982;84;25853;-81
2022/11/01 05:45:23;;;;;;;41.15;14.70;;;;;;;12.50;100.00;100858.25;1692492;84;25769;-80
2022/11/01 05:47:50;;;;;;;24.65;15.15;;;;;;;12.52;100.00;100860.73;1687557;83;26471;-80
2022/11/01 05:50:17;;;;;;;64.95;15.78;;;;;;;12.51;100.00;100857.20;1687993;82;28311;-80
2022/11/01 05:52:43;;;;;;;58.25;15.25;;;;;;;12.51;100.00;100852.38;1694175;84;25853;-80
2022/11/01 05:55:10;;;;;;;38.15;14.65;;;;;;;12.49;100.00;100854.42;1697125;83;26035;-81
2022/11/01 05:57:36;;;;;;;28.73;15.18;;;;;;;12.44;100.00;100844.75;1701658;82;25826;-82
2022/11/01 06:00:05;;;;;;;44.63;13.90;;;;;;;12.42;100.00;100849.48;1693894;82;26006;-80
2022/11/01 06:02:33;;;;;;;69.62;13.88;;;;;;;12.36;100.00;100847.88;1690676;84;27489;-80
2022/11/01 06:04:59;;;;;;;33.78;13.70;;;;;;;12.30;100.00;100851.84;1689829;82;25312;-81
2022/11/01 06:07:26;;;;;;;66.40;15.90;;;;;;;12.26;100.00;100851.91;1699361;82;25806;-80
2022/11/01 06:09:54;;;;;;;58.50;15.80;;;;;;;12.27;100.00;100847.68;1690152;82;26614;-81
2022/11/01 06:12:24;;;;;;;74.45;15.00;;;;;;;12.29;100.00;100841.64;1705438;81;25542;-80
2022/11/01 06:14:50;;;;;;;72.15;15.40;;;;;;;12.30;100.00;100847.81;1706634;83;28240;-80
2022/11/01 06:17:17;;;;;;;65.35;16.15;;;;;;;12.30;100.00;100858.55;1693559;82;26513;-81
2022/11/01 06:19:43;;;;;;;62.23;15.03;;;;;;;12.29;100.00;100861.78;1695579;83;25411;-80
2022/11/01 06:22:10;;;;;;;58.10;15.88;;;;;;;12.26;100.00;100858.13;1690273;82;26312;-81
2022/11/01 06:24:36;;;;;;;70.90;15.80;;;;;;;12.25;100.00;100860.47;1689985;82;25662;-79
2022/11/01 06:27:02;;;;;;;55.85;14.45;;;;;;;12.25;100.00;100851.61;1694938;82;27460;-80
2022/11/01 06:29:29;;;;;;;47.25;15.13;;;;;;;12.25;100.00;100848.38;1689811;83;26335;-81
2022/11/01 06:31:55;;;;;;;66.33;15.43;;;;;;;12.21;100.00;100847.11;1710287;82;25810;-80
2022/11/01 06:34:21;;;;;;;58.15;15.18;;;;;;;12.20;100.00;100850.83;1712808;81;26459;-80
2022/11/01 06:36:48;;;;;;;71.72;15.90;;;;;;;12.18;100.00;100857.41;1711082;81;25495;-80
2022/11/01 06:39:14;;;;;;;45.67;14.93;;;;;;;12.18;100.00;100865.47;1714061;82;28271;-79
2022/11/01 06:41:40;;;;;;;71.77;17.12;;;;;;;12.19;100.00;100871.98;1705579;83;25285;-81
2022/11/01 06:44:06;;;;;;;20.57;15.55;;;;;;;12.21;100.00;100876.65;1692492;83;26563;-81
2022/11/01 06:46:34;;;;;;;72.40;17.55;;;;;;;12.18;100.00;100877.55;1702471;82;26433;-80
2022/11/01 06:49:00;;;;;;;56.37;16.85;;;;;;;12.20;100.00;100875.00;1756859;80;25888;-80
2022/11/01 06:51:26;;;;;;;41.30;17.17;;;;;;;12.20;100.00;100874.16;1746615;80;28192;-81
2022/11/01 06:53:52;;;;;;;51.13;19.05;;;;;;;12.18;100.00;100874.87;1743502;81;25820;-80
2022/11/01 06:56:19;;;;;;;26.17;17.62;;;;;;;12.20;100.00;100871.48;1679799;83;25780;-80
2022/11/01 06:58:49;;;;;;;37.05;16.20;;;;;;;12.22;100.00;100878.33;1677164;83;25803;-81
2022/11/01 07:01:17;;;;;;;39.75;14.28;;;;;;;12.28;100.00;100878.06;1690391;84;25848;-80
2022/11/01 07:03:44;;;;;;;35.90;14.50;;;;;;;12.30;100.00;100884.91;1712074;83;27421;-80
2022/11/01 07:06:11;;;;;;;41.42;15.38;;;;;;;12.29;100.00;100881.92;1713783;81;25816;-80
2022/11/01 07:08:37;;;;;;;36.88;15.32;;;;;;;12.28;100.00;100875.38;1695796;83;25772;-80
2022/11/01 07:11:05;;;;;;;44.50;14.98;;;;;;;12.28;100.00;100876.22;1703064;83;25811;-81
2022/11/01 07:13:32;;;;;;;22.58;15.10;;;;;;;12.27;100.00;100882.59;1698413;82;26164;-81
2022/11/01 07:16:00;;;;;;;59.30;14.20;;;;;;;12.27;100.00;100884.47;1702865;81;27531;-79
2022/11/01 07:18:28;;;;;;;41.42;13.18;;;;;;;12.29;100.00;100887.80;1709780;83;25980;-86
2022/11/01 07:20:55;;;;;;;37.90;14.03;;;;;;;12.30;100.00;100893.48;1704737;83;25768;-79
2022/11/01 07:23:22;;;;;;;37.53;13.18;;;;;;;12.33;100.00;100896.63;1705958;83;25779;-79
2022/11/01 07:25:52;;;;;;;23.95;13.43;;;;;;;12.34;100.00;100884.84;1705412;83;26228;-79
2022/11/01 07:28:19;;;;;;;50.77;15.97;;;;;;;12.37;100.00;100887.67;1700905;83;27435;-80
2022/11/01 07:30:50;;;;;;;66.87;15.35;;;;;;;12.42;100.00;100889.79;1709102;83;26422;-79
2022/11/01 07:33:17;;;;;;;27.52;16.55;;;;;;;12.40;100.00;100881.39;1704801;83;25807;-80
2022/11/01 07:35:44;;;;;;;51.65;17.37;;;;;;;12.41;100.00;100884.92;1707628;83;26196;-79
2022/11/01 07:38:10;;;;;;;29.92;16.75;;;;;;;12.42;100.00;100887.09;1710893;82;26325;-80
2022/11/01 07:40:37;;;;;;;27.75;16.02;;;;;;;12.44;100.00;100888.58;1707429;83;28374;-79
2022/11/01 07:43:05;;;;;;;42.40;18.07;;;;;;;12.47;100.00;100890.86;1706160;83;26263;-79
2022/11/01 07:45:34;;;;;;;35.92;20.85;;;;;;;12.50;100.00;100892.34;1706563;83;26488;-80
2022/11/01 07:48:04;;;;;;;35.00;17.48;;;;;;;12.48;100.00;100887.17;1712138;83;25719;-79
2022/11/01 07:50:32;;;;;;;27.42;15.55;;;;;;;12.50;100.00;100892.34;1703963;82;26012;-79
2022/11/01 07:53:05;;;;;;;45.85;17.35;;;;;;;12.50;100.00;100897.72;1690542;82;28269;-80
2022/11/01 07:55:33;;;;;;;50.25;17.10;;;;;;;12.53;100.00;100893.31;1693861;82;25797;-79
2022/11/01 07:57:59;;;;;;;47.93;16.05;;;;;;;12.54;100.00;100889.59;1698174;82;25831;-79
2022/11/01 08:00:26;;;;;;;30.35;16.57;;;;;;;12.54;100.00;100886.90;1688628;82;25805;-78
2022/11/01 08:03:03;;;;;;;25.85;16.10;;;;;;;12.54;100.00;100888.23;1684567;82;25815;-79
2022/11/01 08:05:30;;;;;;;26.73;15.00;;;;;;;12.55;100.00;100881.36;1693189;82;27626;-79
2022/11/01 08:07:56;;;;;;;30.08;14.63;;;;;;;12.60;100.00;100884.78;1694145;82;26537;-79
2022/11/01 08:10:23;;;;;;;22.98;13.55;;;;;;;12.60;100.00;100886.96;1691383;82;25851;-79
2022/11/01 08:12:49;;;;;;;24.00;15.23;;;;;;;12.60;100.00;100876.72;1695608;82;26091;-79
2022/11/01 08:15:15;;;;;;;46.75;19.10;;;;;;;12.61;100.00;100876.55;1682724;83;25921;-79
2022/11/01 08:17:42;;;;;;;34.23;18.23;;;;;;;12.61;100.00;100868.98;1692334;83;27466;-80
2022/11/01 08:20:10;;;;;;;24.02;18.15;;;;;;;12.61;100.00;100873.86;1685849;83;26368;-79
2022/11/01 08:22:39;;;;;;;23.98;16.73;;;;;;;12.59;100.00;100865.16;1696040;82;25566;-79
2022/11/01 08:25:06;;;;;;;40.40;21.73;;;;;;;12.61;100.00;100864.45;1685115;82;25973;-80
2022/11/01 08:27:33;;;;;;;26.25;18.12;;;;;;;12.63;100.00;100854.84;1687085;82;25861;-80
2022/11/01 08:29:59;;;;;;;28.27;18.45;;;;;;;12.67;100.00;100852.09;1685163;82;27970;-79
2022/11/01 08:32:26;;;;;;;31.65;17.37;;;;;;;12.74;100.00;100853.82;1696647;82;25737;-79
2022/11/01 08:34:52;;;;;;;43.60;17.17;;;;;;;12.75;100.00;100856.80;1691389;82;25762;-80
2022/11/01 08:37:18;;;;;;;43.25;16.10;;;;;;;12.76;100.00;100863.86;1682381;84;25765;-79
2022/11/01 08:39:44;;;;;;;27.22;18.77;;;;;;;12.73;100.00;100862.05;1685544;83;25893;-79
2022/11/01 08:42:11;;;;;;;26.87;17.15;;;;;;;12.71;100.00;100858.73;1680637;83;27475;-80
2022/11/01 08:44:37;;;;;;;37.00;17.70;;;;;;;12.72;100.00;100855.88;1689931;83;25774;-79
2022/11/01 08:47:03;;;;;;;33.05;16.35;;;;;;;12.71;100.00;100855.53;1690409;82;26163;-79
2022/11/01 08:49:30;;;;;;;31.55;16.93;;;;;;;12.73;100.00;100853.48;1696838;82;26329;-80
2022/11/01 08:51:56;;;;;;;35.17;17.67;;;;;;;12.75;100.00;100856.80;1698551;82;25868;-79
2022/11/01 08:54:22;;;;;;;30.55;18.27;;;;;;;12.76;100.00;100856.30;1688518;83;27478;-80
2022/11/01 08:56:49;;;;;;;25.55;18.23;;;;;;;12.73;100.00;100852.14;1685646;83;25929;-79
2022/11/01 08:59:15;;;;;;;31.30;17.77;;;;;;;12.72;100.00;100853.69;1698887;82;26407;-79
2022/11/01 09:01:41;;;;;;;27.73;18.32;;;;;;;12.74;100.00;100848.95;1700592;82;25772;-79
2022/11/01 09:04:08;;;;;;;22.77;17.95;;;;;;;12.78;100.00;100851.05;1698025;82;25971;-79
2022/11/01 09:06:34;;;;;;;29.67;18.67;;;;;;;12.82;100.00;100838.88;1697396;82;27455;-80
2022/11/01 09:09:00;;;;;;;34.88;19.50;;;;;;;12.88;100.00;100842.63;1695252;82;25849;-80
2022/11/01 09:11:28;;;;;;;27.15;19.02;;;;;;;12.92;100.00;100841.21;1694362;82;25865;-79
2022/11/01 09:13:56;;;;;;;29.80;18.20;;;;;;;12.91;100.00;100836.87;1688429;82;26649;-79
2022/11/01 09:16:23;;;;;;;34.80;19.92;;;;;;;12.91;100.00;100838.22;1690204;82;26432;-79
2022/11/01 09:18:50;;;;;;;30.48;18.48;;;;;;;12.91;100.00;100837.72;1698016;82;27514;-79
2022/11/01 09:21:17;;;;;;;28.12;18.82;;;;;;;12.90;100.00;100837.38;1693799;82;25874;-79
2022/11/01 09:23:44;;;;;;;31.57;18.73;;;;;;;12.90;100.00;100836.55;1692518;82;26051;-79
2022/11/01 09:26:12;;;;;;;26.82;19.62;;;;;;;12.92;100.00;100839.87;1707663;82;25772;-80
2022/11/01 09:28:38;;;;;;;37.65;22.45;;;;;;;12.95;100.00;100839.48;1685183;83;25739;-79
2022/11/01 09:31:09;;;;;;;33.70;22.25;;;;;;;12.97;100.00;100836.09;1700683;83;27464;-80
2022/11/01 09:33:36;;;;;;;32.58;22.15;;;;;;;13.02;100.00;100839.03;1689273;83;25929;-80
2022/11/01 09:36:02;;;;;;;34.85;21.05;;;;;;;13.01;100.00;100835.50;1709114;82;26081;-79
2022/11/01 09:38:28;;;;;;;31.95;21.77;;;;;;;13.02;100.00;100841.18;1715243;81;25808;-79
2022/11/01 09:41:23;;;;;;;30.85;21.97;;;;;;;13.05;100.00;100830.58;1709502;82;25841;-79
2022/11/01 09:43:52;;;;;;;29.50;19.85;;;;;;;13.07;100.00;100836.59;1711969;82;27451;-79
2022/11/01 09:46:25;;;;;;;32.78;20.72;;;;;;;13.05;100.00;100835.96;1688061;83;53920;-80
2022/11/01 09:48:53;;;;;;;31.23;19.45;;;;;;;13.06;100.00;100833.61;1686838;83;25975;-79
2022/11/01 09:51:22;;;;;;;31.30;20.55;;;;;;;13.07;100.00;100831.22;1684814;82;26270;-79
2022/11/01 09:53:53;;;;;;;28.42;19.52;;;;;;;13.06;100.00;100830.41;1753442;80;26522;-80
2022/11/01 09:56:54;;;;;;;29.27;21.02;;;;;;;13.07;100.00;100829.87;1750947;80;27453;-79
2022/11/01 09:59:38;;;;;;;30.68;20.97;;;;;;;13.08;100.00;100822.13;1740482;80;25792;-79
2022/11/01 10:02:47;;;;;;;32.40;20.23;;;;;;;13.05;100.00;100823.86;1740980;80;25843;-80
2022/11/01 10:05:31;;;;;;;30.90;21.23;;;;;;;13.03;100.00;100816.47;1751157;80;25865;-78
2022/11/01 10:08:31;;;;;;;29.12;21.23;;;;;;;13.02;100.00;100805.42;1749479;80;25825;-79
2022/11/01 10:11:21;;;;;;;31.95;21.85;;;;;;;12.99;100.00;100801.26;1683213;83;27632;-79
2022/11/01 10:14:25;;;;;;;30.57;22.55;;;;;;;12.97;100.00;100802.48;1692246;83;25953;-79
2022/11/01 10:17:16;;;;;;;34.05;21.77;;;;;;;12.97;100.00;100794.41;1678999;83;26552;-78
2022/11/01 10:19:49;;;;;;;36.95;22.55;;;;;;;12.97;100.00;100800.63;1695021;83;25887;-79
2022/11/01 10:22:22;;;;;;;33.25;22.82;;;;;;;12.96;100.00;100796.77;1712636;81;26412;-78
2022/11/01 10:24:57;;;;;;;30.25;21.85;;;;;;;12.92;100.00;100797.69;1679212;83;27542;-79
2022/11/01 10:27:58;;;;;;;34.83;23.45;;;;;;;12.90;100.00;100791.67;1690994;83;25891;-79
2022/11/01 10:30:25;;;;;;;;;;;;;;;12.84;100.00;100791.12;1702372;82;26498;-79
2022/11/01 10:33:02;;;;;;;35.13;22.25;;;;;;;12.79;100.00;100782.81;1692423;83;26653;-80
2022/11/01 10:35:34;;;;;;;36.08;23.45;;;;;;;12.78;100.00;100775.79;1701763;82;25944;-79
2022/11/01 10:38:17;;;;;;;42.95;25.08;;;;;;;12.82;100.00;100768.15;1704547;82;27454;-79
2022/11/01 10:40:52;;;;;;;37.05;24.30;;;;;;;12.86;100.00;100766.73;1708091;81;26423;-79
2022/11/01 10:43:21;;;;;;;37.70;25.92;;;;;;;12.88;100.00;100760.63;1712170;81;25800;-80
2022/11/01 10:45:52;;;;;;;36.33;25.45;;;;;;;12.87;100.00;100759.80;1713618;81;25854;-79
2022/11/01 10:48:36;;;;;;;37.40;23.87;;;;;;;12.89;100.00;100755.59;1691116;82;26167;-80
2022/11/01 10:51:06;;;;;;;37.48;26.82;;;;;;;12.89;100.00;100756.42;1690039;82;27476;-79
2022/11/01 10:53:40;;;;;;;38.63;24.90;;;;;;;12.85;100.00;100746.27;1717035;81;25787;-80
2022/11/01 10:56:11;;;;;;;34.18;24.23;;;;;;;12.86;100.00;100751.44;1717001;81;25815;-79
2022/11/01 10:58:58;;;;;;;38.92;26.10;;;;;;;12.92;100.00;100745.77;1684304;82;30319;-80
2022/11/01 11:01:29;;;;;;;39.13;26.90;;;;;;;12.95;100.00;100744.88;1701512;82;25918;-79
2022/11/01 11:04:00;;;;;;;44.93;27.85;;;;;;;13.01;100.00;100737.35;1699529;82;28298;-79
2022/11/01 11:06:26;;;;;;;40.33;25.17;;;;;;;13.08;100.00;100734.73;1692728;82;26002;-79
2022/11/01 11:08:55;;;;;;;37.70;24.82;;;;;;;13.12;100.00;100735.98;1701391;82;25870;-79
2022/11/01 11:11:41;;;;;;;36.42;24.82;;;;;;;13.14;100.00;100739.30;1695346;83;25808;-80
2022/11/01 11:14:09;;;;;;;35.25;24.90;;;;;;;13.13;100.00;100734.44;1699799;82;25816;-79
2022/11/01 11:16:46;;;;;;;37.15;24.05;;;;;;;13.11;100.00;100731.63;1703639;83;28678;-79
2022/11/01 11:19:32;;;;;;;36.55;25.48;;;;;;;13.12;100.00;100740.02;1695553;83;25758;-79
2022/11/01 11:22:01;;;;;;;37.80;25.25;;;;;;;13.14;100.00;100754.09;1694348;83;25530;-80
2022/11/01 11:24:37;;;;;;;39.10;26.40;;;;;;;13.14;100.00;100749.55;1696616;83;25824;-79
2022/11/01 11:27:21;;;;;;;40.23;25.77;;;;;;;13.18;100.00;100741.91;1693503;84;26383;-80
2022/11/01 11:29:54;;;;;;;45.05;26.68;;;;;;;13.19;100.00;100735.52;1694216;83;28243;-77